Time;durP1;ratioP1;P1;durP2;ratioP2;P2;SDS_P1;SDS_P2;PMS_P1;PMS_P2;Temp;Humidity;BMP_temperature;BMP_pressure;BME280_temperature;BME280_humidity;BME280_pressure;Samples;Min_cycle;Max_cycle;Signal;HPM_P1;HPM_P2
2021/11/21 00:01:47;;;;;;;2.43;2.20;;;11.20;99.90;;;;;;4993240;28;20265;-82
2021/11/21 00:04:13;;;;;;;5.70;1.37;;;11.20;99.90;;;;;;4992632;28;20425;-81
2021/11/21 00:06:38;;;;;;;4.83;1.27;;;11.20;99.90;;;;;;4976961;28;20677;-81
2021/11/21 00:09:04;;;;;;;11.23;3.60;;;11.30;99.90;;;;;;4992859;28;21132;-81
2021/11/21 00:11:30;;;;;;;5.17;2.03;;;11.30;99.90;;;;;;4993438;28;20199;-81
2021/11/21 00:13:58;;;;;;;1.70;1.23;;;11.30;99.90;;;;;;4995692;28;20243;-82
2021/11/21 00:16:23;;;;;;;0.70;0.70;;;11.30;99.90;;;;;;4992776;28;20685;-83
2021/11/21 00:18:49;;;;;;;1.33;1.23;;;11.40;99.90;;;;;;4993455;28;20238;-82
2021/11/21 00:21:16;;;;;;;9.23;1.63;;;11.30;99.90;;;;;;4991961;28;20306;-81
2021/11/21 00:23:42;;;;;;;0.70;0.43;;;11.30;99.90;;;;;;4993988;28;20200;-82
2021/11/21 00:26:08;;;;;;;0.10;0.10;;;11.20;99.90;;;;;;4996745;28;20210;-82
2021/11/21 00:28:34;;;;;;;0.63;0.30;;;11.00;99.90;;;;;;4994345;28;20230;-81
2021/11/21 00:31:00;;;;;;;1.33;0.30;;;10.90;99.90;;;;;;4993238;28;20784;-80
2021/11/21 00:33:25;;;;;;;1.67;0.30;;;10.90;99.90;;;;;;4992566;28;20239;-82
2021/11/21 00:35:51;;;;;;;4.33;0.40;;;10.90;99.90;;;;;;4967975;28;20196;-82
2021/11/21 00:38:18;;;;;;;0.53;0.53;;;10.90;99.90;;;;;;4967560;28;20243;-82
2021/11/21 00:40:43;;;;;;;0.30;0.23;;;10.90;99.90;;;;;;4993165;28;20263;-83
2021/11/21 00:43:09;;;;;;;2.73;0.60;;;10.90;99.90;;;;;;4991777;28;20334;-82
2021/11/21 00:45:35;;;;;;;1.50;1.00;;;10.90;99.90;;;;;;4992086;28;20595;-82
2021/11/21 00:48:02;;;;;;;1.03;0.53;;;10.90;99.90;;;;;;4994636;28;20298;-82
2021/11/21 00:50:29;;;;;;;2.23;0.73;;;10.90;99.90;;;;;;4992184;28;20196;-83
2021/11/21 00:53:00;;;;;;;0.50;0.47;;;10.90;99.90;;;;;;4994703;28;20222;-81
2021/11/21 00:55:42;;;;;;;10.00;0.30;;;10.90;99.90;;;;;;4988685;28;20308;-82
2021/11/21 00:58:11;;;;;;;0.10;0.10;;;10.90;99.90;;;;;;4976471;28;20223;-82
2021/11/21 01:00:39;;;;;;;6.20;0.50;;;10.90;99.90;;;;;;4992373;28;21124;-82
2021/11/21 01:03:06;;;;;;;0.20;0.20;;;10.80;99.90;;;;;;4991469;28;20250;-82
2021/11/21 01:05:32;;;;;;;0.17;0.17;;;10.80;99.90;;;;;;4973405;28;20200;-82
2021/11/21 01:07:58;;;;;;;0.20;0.20;;;10.90;99.90;;;;;;4977071;28;20712;-82
2021/11/21 01:10:24;;;;;;;0.10;0.10;;;10.80;99.90;;;;;;4994357;28;20236;-83
2021/11/21 01:12:53;;;;;;;12.10;0.80;;;10.90;99.90;;;;;;4992706;28;20612;-83
2021/11/21 01:15:22;;;;;;;0.40;0.40;;;10.90;99.90;;;;;;4992376;28;20223;-82
2021/11/21 01:17:48;;;;;;;0.70;0.53;;;10.90;99.90;;;;;;4995119;28;20188;-82
2021/11/21 01:20:15;;;;;;;1.80;0.30;;;10.90;99.90;;;;;;4994321;28;20360;-83
2021/11/21 01:22:41;;;;;;;0.20;0.20;;;10.80;99.90;;;;;;4993221;28;20254;-81
2021/11/21 01:25:09;;;;;;;2.63;0.43;;;10.90;99.90;;;;;;4990554;28;20227;-82
2021/11/21 01:27:36;;;;;;;5.33;1.00;;;10.90;99.90;;;;;;4989747;28;20556;-82
2021/11/21 01:30:06;;;;;;;0.57;0.13;;;10.90;99.90;;;;;;4999368;28;20311;-82
2021/11/21 01:32:31;;;;;;;0.00;0.00;;;11.00;99.90;;;;;;4987781;28;20335;-82
2021/11/21 01:34:57;;;;;;;0.43;0.23;;;11.00;99.90;;;;;;4988278;28;20239;-83
2021/11/21 01:37:23;;;;;;;0.20;0.20;;;11.00;99.90;;;;;;4994514;28;20370;-83
2021/11/21 01:39:49;;;;;;;0.07;0.07;;;11.00;99.90;;;;;;4974717;28;20822;-83
2021/11/21 01:42:16;;;;;;;0.17;0.17;;;11.00;99.90;;;;;;4992775;28;21069;-83
2021/11/21 01:44:41;;;;;;;0.23;0.23;;;10.90;99.90;;;;;;4989796;28;21025;-82
2021/11/21 01:47:08;;;;;;;0.20;0.20;;;10.90;99.90;;;;;;4989156;28;20195;-82
2021/11/21 01:49:34;;;;;;;0.10;0.10;;;10.90;99.90;;;;;;4993591;28;20237;-82
2021/11/21 01:52:00;;;;;;;2.57;0.60;;;10.90;99.90;;;;;;4990823;28;20590;-83
2021/11/21 01:54:26;;;;;;;2.63;0.47;;;10.90;99.90;;;;;;4991422;28;20238;-82
2021/11/21 01:56:52;;;;;;;14.00;0.63;;;10.90;99.90;;;;;;4976373;28;21402;-81
2021/11/21 01:59:18;;;;;;;2.53;0.23;;;10.90;99.90;;;;;;4991037;28;20304;-83
2021/11/21 02:01:44;;;;;;;0.57;0.57;;;10.90;99.90;;;;;;4988778;28;21123;-83
2021/11/21 02:04:10;;;;;;;0.90;0.90;;;10.90;99.90;;;;;;4974038;28;20247;-83
2021/11/21 02:06:36;;;;;;;2.87;0.87;;;10.90;99.90;;;;;;4991861;28;20355;-83
2021/11/21 02:09:04;;;;;;;0.10;0.10;;;10.90;99.90;;;;;;4989592;28;20777;-82
2021/11/21 02:11:30;;;;;;;0.40;0.40;;;10.90;99.90;;;;;;4986556;28;20266;-82
2021/11/21 02:13:56;;;;;;;6.87;0.53;;;10.90;99.90;;;;;;4992662;28;20251;-82
2021/11/21 02:16:28;;;;;;;0.10;0.10;;;10.80;99.90;;;;;;4994031;28;20220;-83
2021/11/21 02:18:53;;;;;;;0.43;0.43;;;10.80;99.90;;;;;;4995683;28;20270;-81
2021/11/21 02:21:20;;;;;;;0.43;0.33;;;10.80;99.90;;;;;;4987960;28;20218;-80
2021/11/21 02:23:48;;;;;;;0.27;0.20;;;10.80;99.90;;;;;;4993040;28;20230;-83
2021/11/21 02:26:16;;;;;;;2.17;0.10;;;10.70;99.90;;;;;;4989153;28;20200;-84
2021/11/21 02:28:42;;;;;;;0.10;0.10;;;10.70;99.90;;;;;;4990128;28;20219;-83
2021/11/21 02:31:09;;;;;;;3.10;0.40;;;10.70;99.90;;;;;;4990445;28;20215;-82
2021/11/21 02:33:35;;;;;;;0.83;0.83;;;10.70;99.90;;;;;;4986806;28;20266;-83
2021/11/21 02:36:03;;;;;;;1.10;0.60;;;10.60;99.90;;;;;;4989684;28;20224;-80
2021/11/21 02:38:29;;;;;;;1.07;0.23;;;10.70;99.90;;;;;;4996030;28;20187;-80
2021/11/21 02:40:57;;;;;;;1.40;0.57;;;10.70;99.90;;;;;;4991036;28;20307;-82
2021/11/21 02:43:24;;;;;;;1.73;0.47;;;10.70;99.90;;;;;;4982120;28;20227;-82
2021/11/21 02:45:52;;;;;;;4.17;0.63;;;10.70;99.90;;;;;;4987178;28;20424;-80
2021/11/21 02:48:20;;;;;;;14.83;0.63;;;10.70;99.90;;;;;;4992045;28;20226;-79
2021/11/21 02:50:47;;;;;;;0.97;0.33;;;10.60;99.90;;;;;;4991664;28;20518;-80
2021/11/21 02:53:17;;;;;;;0.10;0.10;;;10.70;99.90;;;;;;4988827;28;20323;-84
2021/11/21 02:55:43;;;;;;;0.10;0.10;;;10.60;99.90;;;;;;4990028;28;20574;-80
2021/11/21 02:58:09;;;;;;;2.43;0.80;;;10.60;99.90;;;;;;4986273;28;20223;-80
2021/11/21 03:00:37;;;;;;;0.50;0.50;;;10.60;99.90;;;;;;4972755;28;21222;-80
2021/11/21 03:03:03;;;;;;;2.97;0.43;;;10.60;99.90;;;;;;4987508;28;20276;-80
2021/11/21 03:05:31;;;;;;;0.33;0.10;;;10.60;99.90;;;;;;4989667;28;20711;-82
2021/11/21 03:07:57;;;;;;;0.10;0.10;;;10.60;99.90;;;;;;4992069;28;20228;-80
2021/11/21 03:10:23;;;;;;;1.40;0.30;;;10.60;99.90;;;;;;4990679;28;20231;-82
2021/11/21 03:12:56;;;;;;;1.40;0.77;;;10.70;99.90;;;;;;4989562;28;20557;-81
2021/11/21 03:15:22;;;;;;;1.23;0.40;;;10.60;99.90;;;;;;4989898;28;20251;-82
2021/11/21 03:17:48;;;;;;;0.53;0.40;;;10.50;99.90;;;;;;4972170;28;20662;-83
2021/11/21 03:20:18;;;;;;;1.90;0.43;;;10.50;99.90;;;;;;4989431;28;20199;-81
2021/11/21 03:22:43;;;;;;;0.20;0.20;;;10.40;99.90;;;;;;4987365;28;20234;-80
2021/11/21 03:25:11;;;;;;;2.27;1.73;;;10.40;99.90;;;;;;4989690;28;20223;-82
2021/11/21 03:27:37;;;;;;;1.10;0.30;;;10.50;99.90;;;;;;4991054;28;20218;-80
2021/11/21 03:30:08;;;;;;;2.13;1.03;;;10.50;99.90;;;;;;4991789;28;20232;-80
2021/11/21 03:32:34;;;;;;;0.90;0.50;;;10.50;99.90;;;;;;4988896;28;20195;-81
2021/11/21 03:35:00;;;;;;;0.10;0.10;;;10.50;99.90;;;;;;4991928;28;20241;-79
2021/11/21 03:37:26;;;;;;;3.83;0.83;;;10.50;99.90;;;;;;4988782;28;20230;-81
2021/11/21 03:39:52;;;;;;;5.93;0.37;;;10.50;99.90;;;;;;4990071;28;20310;-82
2021/11/21 03:42:18;;;;;;;2.90;0.43;;;10.50;99.90;;;;;;4988087;28;20219;-82
2021/11/21 03:44:44;;;;;;;0.10;0.10;;;10.50;99.90;;;;;;4987797;28;20999;-79
2021/11/21 03:47:11;;;;;;;7.40;0.63;;;10.50;99.90;;;;;;4975576;28;20200;-82
2021/11/21 03:49:36;;;;;;;0.20;0.20;;;10.40;99.90;;;;;;4973270;28;20219;-82
2021/11/21 03:52:03;;;;;;;2.00;0.63;;;10.40;99.90;;;;;;4988194;28;20555;-80
2021/11/21 03:54:28;;;;;;;0.20;0.20;;;10.40;99.90;;;;;;4973252;28;20227;-80
2021/11/21 03:56:54;;;;;;;0.10;0.10;;;10.30;99.90;;;;;;4990685;28;20594;-84
2021/11/21 03:59:20;;;;;;;0.30;0.30;;;10.30;99.90;;;;;;4992392;28;20219;-82
2021/11/21 04:01:47;;;;;;;0.07;0.07;;;10.30;99.90;;;;;;4980698;28;20223;-82
2021/11/21 04:04:13;;;;;;;3.03;0.47;;;10.30;99.90;;;;;;4991504;28;20230;-82
2021/11/21 04:06:39;;;;;;;0.10;0.10;;;10.20;99.90;;;;;;4989979;28;20660;-82
2021/11/21 04:09:05;;;;;;;0.17;0.17;;;10.20;99.90;;;;;;4982131;28;20239;-81
2021/11/21 04:11:31;;;;;;;2.07;0.67;;;10.20;99.90;;;;;;4993861;28;20506;-79
2021/11/21 04:13:58;;;;;;;0.10;0.10;;;10.20;99.90;;;;;;4976584;28;20228;-83
2021/11/21 04:16:24;;;;;;;1.57;0.93;;;10.20;99.90;;;;;;4991237;28;20224;-83
2021/11/21 04:18:50;;;;;;;0.30;0.30;;;10.20;99.90;;;;;;4991845;28;20339;-82
2021/11/21 04:21:16;;;;;;;18.83;1.43;;;10.20;99.90;;;;;;4992344;28;20224;-82
2021/11/21 04:23:42;;;;;;;0.30;0.30;;;10.10;99.90;;;;;;4967395;28;20272;-82
2021/11/21 04:26:08;;;;;;;0.37;0.37;;;10.00;99.90;;;;;;4992929;28;20210;-83
2021/11/21 04:28:36;;;;;;;1.03;0.50;;;10.00;99.90;;;;;;4992615;28;20251;-82
2021/11/21 04:31:02;;;;;;;0.10;0.10;;;10.10;99.90;;;;;;4993251;28;20224;-81
2021/11/21 04:33:28;;;;;;;0.10;0.10;;;10.00;99.90;;;;;;4989477;28;20379;-80
2021/11/21 04:35:54;;;;;;;0.20;0.20;;;10.00;99.90;;;;;;4976541;28;20579;-83
2021/11/21 04:38:22;;;;;;;0.40;0.40;;;9.90;99.90;;;;;;4979248;28;20183;-80
2021/11/21 04:40:49;;;;;;;1.63;0.63;;;9.80;99.90;;;;;;4992346;28;20298;-81
2021/11/21 04:43:15;;;;;;;0.33;0.33;;;9.70;99.90;;;;;;4990108;28;20223;-82
2021/11/21 04:45:41;;;;;;;1.20;0.43;;;9.70;99.90;;;;;;4992931;28;20226;-80
2021/11/21 04:48:07;;;;;;;0.67;0.67;;;9.60;99.90;;;;;;4989947;28;20596;-82
2021/11/21 04:50:34;;;;;;;9.30;0.57;;;9.60;99.90;;;;;;4990624;28;20188;-81
2021/11/21 04:53:00;;;;;;;0.20;0.20;;;9.60;99.90;;;;;;4991982;28;20971;-82
2021/11/21 04:55:25;;;;;;;0.20;0.20;;;9.60;99.90;;;;;;4993900;28;20338;-82
2021/11/21 04:57:51;;;;;;;10.80;0.70;;;9.60;99.90;;;;;;4991036;28;20705;-83
2021/11/21 05:00:18;;;;;;;0.27;0.27;;;9.70;99.90;;;;;;4990621;28;20310;-82
2021/11/21 05:02:45;;;;;;;1.30;0.20;;;9.70;99.90;;;;;;4991947;28;20668;-81
2021/11/21 05:05:12;;;;;;;1.83;0.83;;;9.80;99.90;;;;;;4993273;28;20246;-80
2021/11/21 05:07:38;;;;;;;0.10;0.10;;;9.70;99.90;;;;;;4991878;28;20222;-81
2021/11/21 05:10:08;;;;;;;1.60;0.70;;;9.70;99.90;;;;;;4987370;28;20219;-81
2021/11/21 05:12:34;;;;;;;0.10;0.10;;;9.70;99.90;;;;;;4992260;28;20677;-82
2021/11/21 05:15:01;;;;;;;1.47;0.47;;;9.70;99.90;;;;;;4991903;28;20249;-81
2021/11/21 05:17:27;;;;;;;2.13;0.70;;;9.70;99.90;;;;;;4994510;28;20811;-81
2021/11/21 05:19:53;;;;;;;1.70;1.20;;;9.60;99.90;;;;;;4993135;28;20212;-82
2021/11/21 05:22:19;;;;;;;0.20;0.20;;;9.60;99.90;;;;;;4978710;28;20577;-81
2021/11/21 05:24:45;;;;;;;1.70;1.07;;;9.60;99.90;;;;;;4990604;28;20230;-82
2021/11/21 05:27:11;;;;;;;0.03;0.03;;;9.50;99.90;;;;;;4993390;28;20246;-83
2021/11/21 05:29:37;;;;;;;0.80;0.80;;;9.40;99.90;;;;;;4993723;28;20668;-81
2021/11/21 05:32:03;;;;;;;1.20;0.57;;;9.40;99.90;;;;;;4988422;28;20832;-81
2021/11/21 05:34:29;;;;;;;7.43;0.77;;;9.50;99.90;;;;;;4975441;28;20230;-81
2021/11/21 05:36:55;;;;;;;0.10;0.10;;;9.60;99.90;;;;;;4992806;28;20408;-80
2021/11/21 05:39:20;;;;;;;1.57;0.67;;;9.50;99.90;;;;;;4989511;28;20230;-84
2021/11/21 05:41:46;;;;;;;1.00;0.30;;;9.50;99.90;;;;;;4993209;28;20237;-82
2021/11/21 05:44:13;;;;;;;0.20;0.20;;;9.40;99.90;;;;;;4989993;28;20757;-81
2021/11/21 05:46:40;;;;;;;0.40;0.40;;;9.40;99.90;;;;;;4990167;28;20230;-81
2021/11/21 05:49:05;;;;;;;0.10;0.10;;;9.40;99.90;;;;;;4986902;28;20331;-80
2021/11/21 05:51:31;;;;;;;0.10;0.10;;;9.40;99.90;;;;;;4991788;28;20241;-80
2021/11/21 05:53:57;;;;;;;0.20;0.20;;;9.50;99.90;;;;;;4990919;28;20247;-83
2021/11/21 05:56:24;;;;;;;0.43;0.43;;;9.60;99.90;;;;;;4990132;28;20615;-80
2021/11/21 05:58:49;;;;;;;0.30;0.30;;;9.60;99.90;;;;;;4991995;28;20219;-82
2021/11/21 06:01:17;;;;;;;0.30;0.20;;;9.70;99.90;;;;;;4989380;28;20224;-82
2021/11/21 06:03:42;;;;;;;0.30;0.30;;;9.60;99.90;;;;;;4987716;28;20224;-82
2021/11/21 06:06:08;;;;;;;0.20;0.20;;;9.50;99.90;;;;;;4964959;28;20755;-82
2021/11/21 06:08:34;;;;;;;2.20;2.10;;;9.50;99.90;;;;;;4996611;28;20263;-82
2021/11/21 06:10:59;;;;;;;0.87;0.63;;;9.40;99.90;;;;;;4992872;28;20583;-82
2021/11/21 06:13:27;;;;;;;4.03;0.43;;;9.30;99.90;;;;;;4987629;28;20741;-82
2021/11/21 06:15:53;;;;;;;0.20;0.20;;;9.30;99.90;;;;;;4989763;28;20223;-82
2021/11/21 06:18:19;;;;;;;0.20;0.20;;;9.30;99.90;;;;;;4990770;28;20219;-83
2021/11/21 06:20:45;;;;;;;1.10;1.03;;;9.30;99.90;;;;;;4969896;28;20195;-81
2021/11/21 06:23:12;;;;;;;0.10;0.10;;;9.30;99.90;;;;;;4986857;28;20207;-80
2021/11/21 06:25:39;;;;;;;0.60;0.53;;;9.20;99.90;;;;;;4990608;28;20218;-82
2021/11/21 06:28:04;;;;;;;0.40;0.40;;;9.10;99.90;;;;;;4990501;28;20216;-82
2021/11/21 06:30:30;;;;;;;5.90;1.13;;;9.00;99.90;;;;;;4990308;28;20248;-81
2021/11/21 06:32:56;;;;;;;0.67;0.60;;;9.00;99.90;;;;;;4992241;28;20376;-82
2021/11/21 06:35:22;;;;;;;1.13;0.60;;;8.90;99.90;;;;;;4991552;28;20732;-81
2021/11/21 06:37:48;;;;;;;4.27;1.40;;;8.90;99.90;;;;;;4990867;28;20242;-82
2021/11/21 06:40:15;;;;;;;0.40;0.40;;;8.80;99.90;;;;;;4990727;28;20692;-80
2021/11/21 06:42:42;;;;;;;3.70;0.67;;;8.80;99.90;;;;;;4972564;28;20249;-82
2021/11/21 06:45:10;;;;;;;14.63;1.07;;;8.70;99.90;;;;;;4990927;28;20219;-82
2021/11/21 06:47:36;;;;;;;0.10;0.10;;;8.70;99.90;;;;;;4991664;28;20207;-81
2021/11/21 06:50:03;;;;;;;0.00;0.00;;;8.80;99.90;;;;;;4988787;28;20250;-80
2021/11/21 06:52:30;;;;;;;0.47;0.47;;;8.80;99.90;;;;;;4988647;28;20216;-80
2021/11/21 06:54:56;;;;;;;0.40;0.40;;;8.90;99.90;;;;;;4990339;28;20251;-82
2021/11/21 06:57:22;;;;;;;2.27;0.33;;;9.00;99.90;;;;;;4987217;28;20656;-81
2021/11/21 06:59:48;;;;;;;0.20;0.20;;;9.10;99.90;;;;;;4991584;28;20191;-80
2021/11/21 07:02:14;;;;;;;1.30;0.77;;;9.10;99.90;;;;;;4991238;28;21192;-81
2021/11/21 07:04:40;;;;;;;2.63;0.30;;;9.20;99.90;;;;;;4975320;28;20237;-81
2021/11/21 07:07:08;;;;;;;0.50;0.27;;;9.10;99.90;;;;;;4972749;28;20220;-80
2021/11/21 07:09:33;;;;;;;0.00;0.00;;;9.10;99.90;;;;;;4991201;28;20239;-81
2021/11/21 07:11:59;;;;;;;0.33;0.27;;;9.20;99.90;;;;;;4984031;28;20220;-80
2021/11/21 07:14:25;;;;;;;0.10;0.10;;;9.40;99.90;;;;;;4973212;28;20277;-83
2021/11/21 07:16:51;;;;;;;1.10;0.67;;;9.30;99.90;;;;;;4989624;28;20223;-79
2021/11/21 07:19:17;;;;;;;0.20;0.20;;;9.30;99.90;;;;;;4991111;28;20688;-81
2021/11/21 07:21:44;;;;;;;1.70;0.40;;;9.20;99.90;;;;;;4990191;28;20259;-82
2021/11/21 07:24:10;;;;;;;0.20;0.20;;;9.00;99.90;;;;;;4990934;28;20242;-83
2021/11/21 07:26:36;;;;;;;0.10;0.10;;;8.90;99.90;;;;;;4975278;28;20200;-82
2021/11/21 07:29:04;;;;;;;19.30;1.20;;;8.90;99.90;;;;;;4990278;28;20210;-81
2021/11/21 07:31:30;;;;;;;0.40;0.40;;;8.80;99.90;;;;;;4989059;28;20250;-81
2021/11/21 07:33:56;;;;;;;0.20;0.20;;;8.90;99.90;;;;;;4992788;28;20326;-83
2021/11/21 07:36:22;;;;;;;0.10;0.10;;;8.90;99.90;;;;;;4994164;28;20256;-83
2021/11/21 07:38:47;;;;;;;2.83;0.83;;;9.00;99.90;;;;;;4987353;28;20250;-80
2021/11/21 07:41:14;;;;;;;1.03;0.40;;;9.00;99.90;;;;;;4974413;28;20196;-81
2021/11/21 07:43:40;;;;;;;0.20;0.20;;;9.00;99.90;;;;;;4994610;28;20224;-79
2021/11/21 07:46:07;;;;;;;1.90;0.80;;;9.20;99.90;;;;;;4996951;28;20313;-80
2021/11/21 07:48:33;;;;;;;0.10;0.10;;;9.50;99.90;;;;;;4994854;28;20242;-80
2021/11/21 07:51:00;;;;;;;0.33;0.33;;;9.80;99.90;;;;;;4999002;28;20219;-80
2021/11/21 07:53:26;;;;;;;1.37;0.20;;;10.00;99.90;;;;;;5011045;28;20239;-82
2021/11/21 07:55:53;;;;;;;1.63;0.40;;;10.30;99.90;;;;;;4999693;28;20227;-82
2021/11/21 07:58:19;;;;;;;4.43;1.03;;;10.30;99.90;;;;;;4991680;28;20275;-83
2021/11/21 08:00:46;;;;;;;0.20;0.20;;;9.90;99.90;;;;;;4993252;28;20872;-81
2021/11/21 08:03:12;;;;;;;3.70;0.70;;;9.60;99.90;;;;;;4995674;28;20235;-81
2021/11/21 08:05:38;;;;;;;0.10;0.10;;;9.40;99.90;;;;;;4995656;28;20209;-83
2021/11/21 08:08:05;;;;;;;1.23;1.13;;;9.40;99.90;;;;;;4994627;28;20303;-83
2021/11/21 08:10:31;;;;;;;0.20;0.20;;;9.30;99.90;;;;;;4995038;28;20231;-82
2021/11/21 08:12:57;;;;;;;0.23;0.23;;;9.40;99.90;;;;;;4993012;28;20243;-81
2021/11/21 08:15:22;;;;;;;0.30;0.30;;;9.50;99.90;;;;;;4994240;28;20318;-80
2021/11/21 08:17:48;;;;;;;0.30;0.30;;;9.70;99.90;;;;;;4978581;28;20235;-82
2021/11/21 08:20:14;;;;;;;0.17;0.17;;;9.80;99.90;;;;;;4996617;28;20195;-83
2021/11/21 08:22:40;;;;;;;0.10;0.10;;;9.70;99.90;;;;;;4991039;28;20223;-82
2021/11/21 08:25:07;;;;;;;0.10;0.10;;;9.70;99.90;;;;;;4993034;28;20228;-81
2021/11/21 08:27:33;;;;;;;0.10;0.10;;;9.70;99.90;;;;;;4988919;28;20223;-80
2021/11/21 08:29:59;;;;;;;1.33;0.63;;;9.60;99.90;;;;;;4993440;28;21518;-83
2021/11/21 08:32:24;;;;;;;0.00;0.00;;;9.70;99.90;;;;;;4996873;28;20284;-83
2021/11/21 08:34:50;;;;;;;2.03;1.43;;;9.60;99.90;;;;;;4996483;28;20227;-84
2021/11/21 08:37:16;;;;;;;0.97;0.97;;;9.70;99.90;;;;;;4991553;28;20230;-82
2021/11/21 08:39:42;;;;;;;1.37;0.23;;;9.80;99.90;;;;;;4994760;28;20223;-84
2021/11/21 08:42:08;;;;;;;0.17;0.17;;;9.90;99.90;;;;;;4993653;28;20220;-83
2021/11/21 08:44:35;;;;;;;0.40;0.30;;;10.00;99.90;;;;;;4994589;28;20196;-83
2021/11/21 08:47:01;;;;;;;0.20;0.20;;;10.30;99.90;;;;;;4986800;28;20711;-84
2021/11/21 08:49:27;;;;;;;1.37;0.83;;;10.60;99.90;;;;;;4995012;28;20233;-85
2021/11/21 08:51:53;;;;;;;0.33;0.33;;;10.50;99.90;;;;;;4994496;28;20227;-85
2021/11/21 08:54:19;;;;;;;0.10;0.10;;;10.30;99.90;;;;;;4994792;28;20234;-83
2021/11/21 08:56:46;;;;;;;0.40;0.20;;;10.10;99.90;;;;;;4992475;28;20212;-84
2021/11/21 08:59:12;;;;;;;0.20;0.20;;;10.00;99.90;;;;;;5009414;28;20244;-83
2021/11/21 09:01:37;;;;;;;0.40;0.40;;;9.90;99.90;;;;;;4977790;28;20298;-80
2021/11/21 09:04:03;;;;;;;0.13;0.13;;;9.90;99.90;;;;;;4991688;28;20251;-82
2021/11/21 09:06:30;;;;;;;0.20;0.20;;;9.90;99.90;;;;;;4990006;28;20223;-81
2021/11/21 09:08:56;;;;;;;0.13;0.13;;;9.90;99.90;;;;;;4989342;28;20300;-81
2021/11/21 09:11:22;;;;;;;0.33;0.33;;;10.00;99.90;;;;;;4989771;28;20197;-81
2021/11/21 09:13:48;;;;;;;1.23;0.60;;;10.10;99.90;;;;;;4986141;28;21008;-82
2021/11/21 09:16:14;;;;;;;0.30;0.30;;;10.20;99.90;;;;;;4988090;28;20224;-82
2021/11/21 09:18:39;;;;;;;0.10;0.10;;;10.20;99.90;;;;;;4983899;28;20682;-82
2021/11/21 09:21:06;;;;;;;0.20;0.20;;;10.30;99.90;;;;;;4992081;28;20216;-81
2021/11/21 09:23:32;;;;;;;0.33;0.33;;;10.30;99.90;;;;;;4990187;28;20192;-82
2021/11/21 09:25:57;;;;;;;0.00;0.00;;;10.40;99.90;;;;;;4993974;28;20381;-82
2021/11/21 09:28:25;;;;;;;0.20;0.20;;;10.40;99.90;;;;;;4989621;28;20231;-82
2021/11/21 09:30:53;;;;;;;2.00;0.20;;;10.40;99.90;;;;;;4993759;28;20231;-83
2021/11/21 09:33:19;;;;;;;0.97;0.97;;;10.50;99.90;;;;;;4992733;28;20273;-82
2021/11/21 09:35:45;;;;;;;3.23;0.33;;;10.50;99.90;;;;;;4991532;28;20700;-83
2021/11/21 09:38:12;;;;;;;0.30;0.20;;;10.60;99.90;;;;;;4991496;28;20212;-82
2021/11/21 09:40:38;;;;;;;0.20;0.10;;;10.80;99.90;;;;;;4961497;28;20265;-82
2021/11/21 09:43:04;;;;;;;0.10;0.10;;;10.90;99.90;;;;;;4991535;28;20223;-84
2021/11/21 09:45:30;;;;;;;0.10;0.10;;;10.70;99.90;;;;;;4988792;28;20250;-84
2021/11/21 09:47:58;;;;;;;3.53;1.37;;;10.40;99.90;;;;;;4992352;28;20223;-82
2021/11/21 09:50:26;;;;;;;0.13;0.13;;;10.30;99.90;;;;;;4989412;28;20250;-84
2021/11/21 09:52:52;;;;;;;0.30;0.30;;;10.20;99.90;;;;;;4994166;28;20223;-83
2021/11/21 09:55:18;;;;;;;3.00;1.23;;;10.10;99.90;;;;;;4990868;28;20238;-82
2021/11/21 09:57:45;;;;;;;0.43;0.43;;;10.10;99.90;;;;;;4991060;28;20223;-83
2021/11/21 10:00:13;;;;;;;1.03;0.40;;;10.20;99.90;;;;;;4990046;28;20224;-82
2021/11/21 10:02:47;;;;;;;1.80;0.50;;;10.30;99.90;;;;;;4989805;28;20191;-83
2021/11/21 10:05:25;;;;;;;2.53;2.30;;;10.40;99.90;;;;;;4988738;28;20665;-83
2021/11/21 10:08:14;;;;;;;0.33;0.33;;;10.40;99.90;;;;;;4984350;28;20223;-83
2021/11/21 10:10:49;;;;;;;0.20;0.20;;;10.30;99.90;;;;;;4979951;28;20228;-82
2021/11/21 10:13:22;;;;;;;0.33;0.33;;;10.30;99.90;;;;;;4990768;28;20235;-85
2021/11/21 10:15:48;;;;;;;0.00;0.00;;;10.30;99.90;;;;;;4990188;28;20219;-83
2021/11/21 10:18:13;;;;;;;0.10;0.10;;;10.30;99.90;;;;;;4991229;28;20212;-83
2021/11/21 10:20:40;;;;;;;0.30;0.30;;;10.30;99.90;;;;;;4975676;28;20187;-83
2021/11/21 10:23:10;;;;;;;10.70;1.33;;;10.50;99.90;;;;;;4994496;28;20223;-84
2021/11/21 10:25:56;;;;;;;0.10;0.10;;;10.60;99.90;;;;;;4993177;28;20215;-84
2021/11/21 10:28:32;;;;;;;0.30;0.30;;;10.80;99.90;;;;;;4985223;28;20223;-83
2021/11/21 10:31:20;;;;;;;0.17;0.17;;;11.00;99.90;;;;;;4994473;28;20225;-83
2021/11/21 10:33:50;;;;;;;0.13;0.13;;;11.00;99.90;;;;;;5000163;28;20229;-82
2021/11/21 10:36:32;;;;;;;2.70;0.50;;;10.80;99.90;;;;;;5000408;28;20216;-83
2021/11/21 10:39:00;;;;;;;1.40;0.93;;;10.60;99.90;;;;;;4992872;28;20211;-82
2021/11/21 10:41:31;;;;;;;0.77;0.50;;;10.60;99.90;;;;;;4991859;28;20200;-83
2021/11/21 10:44:06;;;;;;;0.10;0.10;;;10.60;99.90;;;;;;4994292;28;20220;-83
2021/11/21 10:46:34;;;;;;;0.20;0.20;;;10.90;99.90;;;;;;4993975;28;20273;-83
2021/11/21 10:49:25;;;;;;;23.07;1.20;;;11.00;99.90;;;;;;4990887;28;20223;-83
2021/11/21 10:52:01;;;;;;;4.43;0.93;;;11.10;99.90;;;;;;4983587;28;20706;-84
2021/11/21 10:54:36;;;;;;;1.07;0.30;;;11.10;99.90;;;;;;4992748;28;20526;-83
2021/11/21 10:57:07;;;;;;;0.00;0.00;;;11.10;99.90;;;;;;4993189;28;20226;-82
2021/11/21 10:59:51;;;;;;;1.40;0.17;;;10.90;99.90;;;;;;4991515;28;20207;-82
2021/11/21 11:02:24;;;;;;;0.10;0.10;;;10.70;99.90;;;;;;4991199;28;20226;-81
2021/11/21 11:05:11;;;;;;;0.10;0.10;;;10.50;99.90;;;;;;4990981;28;20759;-83
2021/11/21 11:07:44;;;;;;;0.30;0.30;;;10.40;99.90;;;;;;4991478;28;20226;-82
2021/11/21 11:10:14;;;;;;;0.53;0.53;;;10.30;99.90;;;;;;4989254;28;20235;-82
2021/11/21 11:12:43;;;;;;;0.13;0.13;;;10.20;99.90;;;;;;4990697;28;20230;-84
2021/11/21 11:15:09;;;;;;;2.77;0.80;;;10.20;99.90;;;;;;4987523;28;20262;-82
2021/11/21 11:17:36;;;;;;;0.10;0.10;;;10.20;99.90;;;;;;4993855;28;20265;-84
2021/11/21 11:20:05;;;;;;;0.17;0.17;;;10.30;99.90;;;;;;5001253;28;20195;-81
2021/11/21 11:22:37;;;;;;;2.53;0.60;;;10.50;99.90;;;;;;4995026;28;20210;-81
2021/11/21 11:25:35;;;;;;;0.93;0.60;;;11.00;99.90;;;;;;4996736;28;20390;-81
2021/11/21 11:28:11;;;;;;;0.93;0.30;;;10.80;99.90;;;;;;4995641;28;20215;-82
2021/11/21 11:30:40;;;;;;;3.50;0.50;;;10.50;99.90;;;;;;4999948;28;20258;-81
2021/11/21 11:33:24;;;;;;;0.07;0.07;;;10.30;99.90;;;;;;4996101;28;20222;-81
2021/11/21 11:35:53;;;;;;;7.50;1.40;;;10.20;99.90;;;;;;4994035;28;20210;-80
2021/11/21 11:38:24;;;;;;;0.70;0.17;;;10.00;99.90;;;;;;4995265;28;20523;-81
2021/11/21 11:40:57;;;;;;;0.30;0.30;;;9.90;99.90;;;;;;4996099;28;20310;-82
2021/11/21 11:43:30;;;;;;;1.23;0.53;;;10.00;99.90;;;;;;4999998;28;20246;-82
2021/11/21 11:46:01;;;;;;;0.70;0.70;;;10.00;99.90;;;;;;5000355;28;20270;-81
2021/11/21 11:48:46;;;;;;;1.20;0.13;;;10.10;99.90;;;;;;5000448;28;20219;-81
2021/11/21 11:51:18;;;;;;;2.47;0.47;;;10.10;99.90;;;;;;4999215;28;20226;-81
2021/11/21 11:53:45;;;;;;;0.20;0.20;;;10.20;99.90;;;;;;5002241;28;20231;-81
2021/11/21 11:56:16;;;;;;;5.67;0.83;;;10.30;99.90;;;;;;5001753;28;20265;-83
2021/11/21 11:59:03;;;;;;;0.50;0.33;;;10.10;99.90;;;;;;5002464;28;20247;-83
2021/11/21 12:01:31;;;;;;;1.17;0.77;;;9.50;99.90;;;;;;4996913;28;20223;-83
2021/11/21 12:03:59;;;;;;;0.50;0.30;;;9.50;99.90;;;;;;5000058;28;20227;-80
2021/11/21 12:06:53;;;;;;;6.23;0.60;;;9.50;99.90;;;;;;4995068;28;20223;-80
2021/11/21 12:09:25;;;;;;;0.67;0.67;;;9.60;99.90;;;;;;4993108;28;20235;-82
2021/11/21 12:11:58;;;;;;;0.20;0.20;;;9.50;99.90;;;;;;4998327;28;20187;-81
2021/11/21 12:14:34;;;;;;;0.43;0.23;;;9.50;99.90;;;;;;4996948;28;20227;-82
2021/11/21 12:17:15;;;;;;;0.40;0.37;;;9.50;99.90;;;;;;5001351;28;20214;-82
2021/11/21 12:19:48;;;;;;;2.33;0.83;;;9.60;99.90;;;;;;4993002;28;20215;-82
2021/11/21 12:22:29;;;;;;;0.40;0.40;;;9.90;99.90;;;;;;4994276;28;20227;-82
2021/11/21 12:25:05;;;;;;;2.20;1.20;;;10.10;99.90;;;;;;5011177;28;20558;-81
2021/11/21 12:27:39;;;;;;;0.57;0.43;;;10.30;99.90;;;;;;4997193;28;20266;-79
2021/11/21 12:30:23;;;;;;;3.03;1.90;;;10.40;99.90;;;;;;4992804;28;20297;-82
2021/11/21 12:33:03;;;;;;;0.30;0.27;;;10.60;99.90;;;;;;4985523;28;20218;-80
2021/11/21 12:35:39;;;;;;;0.23;0.23;;;10.70;99.90;;;;;;4991932;28;20356;-80
2021/11/21 12:38:32;;;;;;;0.47;0.47;;;11.00;99.90;;;;;;4990828;28;20230;-83
2021/11/21 12:41:00;;;;;;;0.13;0.13;;;11.20;99.90;;;;;;4987846;28;20215;-82
2021/11/21 12:43:28;;;;;;;3.30;0.93;;;11.30;99.90;;;;;;4967056;28;20227;-81
2021/11/21 12:46:00;;;;;;;0.47;0.47;;;11.20;99.90;;;;;;4988178;28;20606;-84
2021/11/21 12:48:31;;;;;;;0.23;0.20;;;11.00;99.90;;;;;;4984682;28;20314;-81
2021/11/21 12:51:05;;;;;;;4.33;0.27;;;10.90;99.90;;;;;;4986131;28;20273;-81
2021/11/21 12:53:36;;;;;;;0.10;0.10;;;11.00;99.90;;;;;;4989973;28;20323;-81
2021/11/21 12:56:08;;;;;;;0.77;0.60;;;10.70;99.90;;;;;;4988904;28;20224;-81